createdAt,value
2023-05-01T00:00:56.546Z,462.00
2023-05-01T00:01:56.591Z,462.00
2023-05-01T00:02:56.620Z,462.00
2023-05-01T00:03:56.922Z,461.00
2023-05-01T00:04:56.736Z,459.00
2023-05-01T00:05:56.680Z,457.00
2023-05-01T00:06:56.669Z,458.00
2023-05-01T00:07:56.676Z,458.00
2023-05-01T00:08:56.674Z,458.00
2023-05-01T00:09:56.961Z,457.00
2023-05-01T00:10:56.798Z,455.00
2023-05-01T00:11:56.742Z,455.00
2023-05-01T00:12:56.735Z,457.00
2023-05-01T00:13:56.747Z,457.00
2023-05-01T00:14:56.773Z,458.00
2023-05-01T00:15:56.864Z,458.00
2023-05-01T00:16:56.849Z,459.00
2023-05-01T00:17:56.845Z,458.00
2023-05-01T00:18:56.814Z,458.00
2023-05-01T00:19:57.001Z,460.00
2023-05-01T00:20:56.859Z,460.00
2023-05-01T00:21:56.875Z,458.00
2023-05-01T00:22:56.858Z,457.00
2023-05-01T00:23:56.862Z,458.00
2023-05-01T00:24:56.884Z,460.00
2023-05-01T00:25:56.898Z,458.00
2023-05-01T00:26:56.900Z,458.00
2023-05-01T00:27:56.919Z,459.00
2023-05-01T00:28:56.912Z,459.00
2023-05-01T00:29:57.213Z,460.00
2023-05-01T00:30:56.948Z,460.00
2023-05-01T00:31:56.993Z,460.00
2023-05-01T00:32:56.985Z,460.00
2023-05-01T00:33:56.904Z,458.00
2023-05-01T00:34:56.954Z,460.00
2023-05-01T00:35:56.938Z,461.00
2023-05-01T00:36:56.966Z,461.00
2023-05-01T00:37:56.923Z,458.00
2023-05-01T00:38:56.924Z,458.00
2023-05-01T00:39:57.156Z,458.00
2023-05-01T00:40:56.953Z,458.00
2023-05-01T00:41:56.965Z,459.00
2023-05-01T00:42:56.916Z,460.00
2023-05-01T00:43:56.940Z,459.00
2023-05-01T00:44:56.935Z,459.00
2023-05-01T00:45:56.959Z,460.00
2023-05-01T00:46:56.955Z,462.00
2023-05-01T00:47:57.074Z,461.00
2023-05-01T00:48:56.978Z,458.00
2023-05-01T00:49:57.324Z,458.00
2023-05-01T00:50:56.995Z,458.00
2023-05-01T00:51:56.987Z,459.00
2023-05-01T00:52:56.985Z,459.00
2023-05-01T00:53:57.002Z,457.00
2023-05-01T00:54:56.995Z,459.00
2023-05-01T00:55:56.987Z,460.00
2023-05-01T00:56:57.095Z,460.00
2023-05-01T00:57:57.163Z,462.00
2023-05-01T00:58:57.249Z,463.00
2023-05-01T00:59:57.470Z,463.00
2023-05-01T01:00:57.474Z,464.00
2023-05-01T01:01:57.426Z,465.00
2023-05-01T01:02:57.464Z,464.00
2023-05-01T01:03:57.494Z,465.00
2023-05-01T01:04:57.611Z,464.00
2023-05-01T01:05:57.495Z,463.00
2023-05-01T01:06:57.465Z,464.00
2023-05-01T01:07:57.497Z,463.00
2023-05-01T01:08:57.583Z,467.00
2023-05-01T01:09:57.794Z,465.00
2023-05-01T01:10:57.698Z,465.00
2023-05-01T01:11:57.715Z,465.00
2023-05-01T01:12:57.784Z,465.00
2023-05-01T01:13:57.873Z,466.00
2023-05-01T01:14:57.936Z,464.00
2023-05-01T01:15:57.978Z,463.00
2023-05-01T01:16:58.035Z,461.00
2023-05-01T01:17:58.128Z,460.00
2023-05-01T01:18:58.158Z,458.00
2023-05-01T01:19:58.340Z,457.00
2023-05-01T01:20:58.244Z,453.00
2023-05-01T01:21:58.333Z,455.00
2023-05-01T01:22:58.374Z,455.00
2023-05-01T01:23:58.416Z,455.00
2023-05-01T01:24:58.507Z,457.00
2023-05-01T01:25:58.538Z,459.00
2023-05-01T01:26:58.573Z,461.00
2023-05-01T01:27:58.599Z,461.00
2023-05-01T01:28:58.644Z,463.00
2023-05-01T01:29:58.822Z,464.00
2023-05-01T01:30:58.747Z,465.00
2023-05-01T01:31:58.772Z,464.00
2023-05-01T01:32:58.809Z,465.00
2023-05-01T01:33:58.803Z,465.00
2023-05-01T01:34:58.864Z,466.00
2023-05-01T01:35:58.905Z,467.00
2023-05-01T01:36:58.913Z,469.00
2023-05-01T01:37:58.947Z,468.00
2023-05-01T01:38:59.000Z,468.00
2023-05-01T01:39:59.066Z,466.00
2023-05-01T01:40:59.077Z,465.00
2023-05-01T01:41:59.073Z,462.00
2023-05-01T01:42:59.102Z,464.00
2023-05-01T01:43:59.150Z,466.00
2023-05-01T01:44:59.170Z,467.00
2023-05-01T01:45:59.257Z,466.00
2023-05-01T01:46:59.215Z,464.00
2023-05-01T01:47:59.237Z,465.00
2023-05-01T01:48:59.225Z,466.00
2023-05-01T01:49:59.284Z,464.00
2023-05-01T01:50:59.320Z,463.00
2023-05-01T01:51:59.303Z,462.00
2023-05-01T01:52:59.319Z,462.00
2023-05-01T01:53:59.367Z,464.00
2023-05-01T01:54:59.348Z,461.00
2023-05-01T01:56:00.314Z,461.00
2023-05-01T01:56:59.402Z,462.00
2023-05-01T01:57:59.455Z,462.00
2023-05-01T01:58:59.421Z,463.00
2023-05-01T01:59:59.463Z,461.00
2023-05-01T02:00:59.488Z,459.00
2023-05-01T02:01:59.569Z,458.00
2023-05-01T02:02:59.647Z,457.00
2023-05-01T02:03:59.649Z,461.00
2023-05-01T02:04:59.564Z,460.00
2023-05-01T02:05:59.613Z,458.00
2023-05-01T02:06:59.600Z,456.00
2023-05-01T02:07:59.619Z,458.00
2023-05-01T02:08:59.627Z,456.00
2023-05-01T02:09:59.635Z,454.00
2023-05-01T02:11:01.825Z,456.00
2023-05-01T02:11:59.807Z,456.00
2023-05-01T02:12:59.807Z,457.00
2023-05-01T02:13:59.824Z,456.00
2023-05-01T02:14:59.839Z,456.00
2023-05-01T02:15:59.907Z,455.00
2023-05-01T02:16:59.861Z,455.00
2023-05-01T02:17:59.943Z,454.00
2023-05-01T02:18:59.890Z,455.00
2023-05-01T02:19:59.916Z,452.00
2023-05-01T02:20:59.941Z,451.00
2023-05-01T02:21:59.933Z,450.00
2023-05-01T02:22:59.971Z,455.00
2023-05-01T02:23:59.961Z,454.00
2023-05-01T02:25:00.019Z,454.00
2023-05-01T02:25:59.998Z,458.00
2023-05-01T02:26:59.996Z,460.00
2023-05-01T02:27:59.996Z,460.00
2023-05-01T02:29:00.009Z,461.00
2023-05-01T02:30:00.038Z,461.00
2023-05-01T02:31:00.151Z,458.00
2023-05-01T02:32:00.157Z,458.00
2023-05-01T02:33:00.230Z,458.00
2023-05-01T02:34:00.093Z,456.00
2023-05-01T02:35:00.133Z,458.00
2023-05-01T02:36:00.100Z,457.00
2023-05-01T02:37:00.124Z,456.00
2023-05-01T02:38:00.117Z,459.00
2023-05-01T02:39:00.129Z,460.00
2023-05-01T02:40:00.152Z,461.00
2023-05-01T02:41:00.134Z,459.00
2023-05-01T02:42:00.126Z,459.00
2023-05-01T02:43:00.158Z,458.00
2023-05-01T02:44:00.144Z,459.00
2023-05-01T02:45:00.260Z,459.00
2023-05-01T02:46:00.187Z,459.00
2023-05-01T02:47:00.231Z,457.00
2023-05-01T02:48:00.243Z,457.00
2023-05-01T02:49:00.209Z,459.00
2023-05-01T02:50:00.215Z,457.00
2023-05-01T02:51:00.233Z,459.00
2023-05-01T02:52:00.190Z,459.00
2023-05-01T02:53:00.231Z,458.00
2023-05-01T02:54:00.284Z,458.00
2023-05-01T02:55:00.260Z,460.00
2023-05-01T02:56:00.301Z,463.00
2023-05-01T02:57:00.278Z,463.00
2023-05-01T02:58:00.283Z,463.00
2023-05-01T02:59:00.313Z,462.00
2023-05-01T03:00:00.314Z,462.00
2023-05-01T03:01:00.345Z,460.00
2023-05-01T03:02:00.328Z,458.00
2023-05-01T03:03:00.355Z,459.00
2023-05-01T03:04:00.428Z,458.00
2023-05-01T03:05:00.350Z,459.00
2023-05-01T03:06:00.410Z,460.00
2023-05-01T03:07:00.385Z,460.00
2023-05-01T03:08:00.368Z,460.00
2023-05-01T03:09:00.408Z,459.00
2023-05-01T03:10:00.406Z,457.00
2023-05-01T03:11:00.436Z,455.00
2023-05-01T03:12:00.439Z,455.00
2023-05-01T03:13:00.446Z,453.00
2023-05-01T03:14:00.481Z,450.00
2023-05-01T03:15:00.458Z,451.00
2023-05-01T03:16:00.541Z,452.00
2023-05-01T03:17:00.505Z,454.00
2023-05-01T03:18:00.586Z,454.00
2023-05-01T03:19:00.504Z,455.00
2023-05-01T03:20:00.536Z,455.00
2023-05-01T03:21:00.541Z,457.00
2023-05-01T03:22:00.596Z,456.00
2023-05-01T03:23:00.542Z,458.00
2023-05-01T03:24:00.587Z,460.00
2023-05-01T03:25:00.624Z,458.00
2023-05-01T03:26:00.612Z,460.00
2023-05-01T03:27:00.673Z,460.00
2023-05-01T03:28:00.663Z,460.00
2023-05-01T03:29:00.676Z,460.00
2023-05-01T03:30:00.683Z,460.00
2023-05-01T03:31:00.683Z,462.00
2023-05-01T03:32:00.719Z,463.00
2023-05-01T03:33:00.780Z,465.00
2023-05-01T03:34:00.736Z,462.00
2023-05-01T03:35:00.929Z,463.00
2023-05-01T03:36:00.792Z,459.00
2023-05-01T03:37:00.765Z,459.00
2023-05-01T03:38:00.798Z,458.00
2023-05-01T03:39:00.789Z,458.00
2023-05-01T03:40:00.813Z,456.00
2023-05-01T03:41:00.853Z,455.00
2023-05-01T03:42:00.824Z,456.00
2023-05-01T03:43:00.871Z,458.00
2023-05-01T03:44:00.868Z,457.00
2023-05-01T03:45:00.873Z,454.00
2023-05-01T03:46:00.863Z,455.00
2023-05-01T03:47:00.898Z,454.00
2023-05-01T03:48:00.945Z,452.00
2023-05-01T03:49:00.907Z,451.00
2023-05-01T03:50:00.924Z,453.00
2023-05-01T03:51:00.975Z,453.00
2023-05-01T03:52:00.975Z,453.00
2023-05-01T03:53:00.968Z,454.00
2023-05-01T03:54:00.992Z,453.00
2023-05-01T03:55:00.988Z,454.00
2023-05-01T03:56:01.021Z,456.00
2023-05-01T03:57:01.031Z,457.00
2023-05-01T03:58:01.049Z,457.00
2023-05-01T03:59:01.062Z,458.00
2023-05-01T04:00:01.120Z,458.00
2023-05-01T04:01:01.163Z,457.00
2023-05-01T04:02:01.129Z,456.00
2023-05-01T04:03:01.293Z,458.00
2023-05-01T04:04:01.274Z,461.00
2023-05-01T04:05:01.155Z,462.00
2023-05-01T04:06:01.181Z,462.00
2023-05-01T04:07:01.168Z,459.00
2023-05-01T04:08:01.227Z,461.00
2023-05-01T04:09:01.204Z,463.00
2023-05-01T04:10:01.212Z,464.00
2023-05-01T04:11:01.273Z,466.00
2023-05-01T04:12:01.289Z,465.00
2023-05-01T04:13:01.298Z,465.00
2023-05-01T04:14:01.359Z,463.00
2023-05-01T04:15:01.363Z,460.00
2023-05-01T04:16:01.353Z,458.00
2023-05-01T04:17:01.378Z,460.00
2023-05-01T04:18:01.486Z,461.00
2023-05-01T04:19:01.381Z,460.00
2023-05-01T04:20:01.439Z,460.00
2023-05-01T04:21:01.580Z,457.00
2023-05-01T04:22:01.459Z,457.00
2023-05-01T04:23:01.486Z,458.00
2023-05-01T04:24:01.534Z,458.00
2023-05-01T04:25:01.552Z,460.00
2023-05-01T04:26:01.552Z,458.00
2023-05-01T04:27:01.553Z,460.00
2023-05-01T04:28:01.601Z,460.00
2023-05-01T04:29:01.609Z,460.00
2023-05-01T04:30:01.604Z,459.00
2023-05-01T04:31:01.655Z,459.00
2023-05-01T04:32:01.812Z,458.00
2023-05-01T04:33:01.775Z,460.00
2023-05-01T04:34:01.745Z,460.00
2023-05-01T04:35:01.746Z,459.00
2023-05-01T04:36:01.759Z,458.00
2023-05-01T04:37:01.804Z,461.00
2023-05-01T04:38:01.814Z,462.00
2023-05-01T04:39:01.813Z,461.00
2023-05-01T04:40:01.816Z,463.00
2023-05-01T04:41:01.898Z,462.00
2023-05-01T04:42:01.884Z,462.00
2023-05-01T04:43:01.939Z,460.00
2023-05-01T04:44:01.965Z,459.00
2023-05-01T04:45:01.961Z,461.00
2023-05-01T04:46:01.988Z,461.00
2023-05-01T04:47:02.076Z,459.00
2023-05-01T04:48:02.086Z,457.00
2023-05-01T04:49:02.085Z,457.00
2023-05-01T04:50:02.095Z,458.00
2023-05-01T04:51:02.121Z,456.00
2023-05-01T04:52:02.157Z,455.00
2023-05-01T04:53:02.184Z,456.00
2023-05-01T04:54:02.186Z,456.00
2023-05-01T04:55:02.244Z,456.00
2023-05-01T04:56:02.228Z,456.00
2023-05-01T04:57:02.275Z,454.00
2023-05-01T04:58:02.305Z,454.00
2023-05-01T04:59:02.306Z,454.00
2023-05-01T05:00:02.332Z,457.00
2023-05-01T05:01:02.459Z,458.00
2023-05-01T05:02:02.614Z,458.00
2023-05-01T05:03:02.544Z,458.00
2023-05-01T05:04:02.694Z,457.00
2023-05-01T05:05:02.483Z,458.00
2023-05-01T05:06:02.549Z,456.00
2023-05-01T05:07:02.519Z,456.00
2023-05-01T05:08:02.563Z,457.00
2023-05-01T05:09:02.592Z,457.00
2023-05-01T05:10:02.594Z,457.00
2023-05-01T05:11:02.631Z,455.00
2023-05-01T05:12:02.632Z,455.00
2023-05-01T05:13:02.689Z,458.00
2023-05-01T05:14:02.707Z,457.00
2023-05-01T05:15:02.714Z,458.00
2023-05-01T05:16:02.784Z,456.00
2023-05-01T05:17:02.811Z,456.00
2023-05-01T05:18:02.883Z,456.00
2023-05-01T05:19:02.869Z,457.00
2023-05-01T05:20:02.909Z,458.00
2023-05-01T05:21:02.925Z,458.00
2023-05-01T05:22:02.945Z,455.00
2023-05-01T05:23:02.988Z,454.00
2023-05-01T05:24:03.044Z,455.00
2023-05-01T05:25:03.031Z,457.00
2023-05-01T05:26:03.076Z,457.00
2023-05-01T05:27:03.082Z,457.00
2023-05-01T05:28:03.113Z,457.00
2023-05-01T05:29:03.140Z,457.00
2023-05-01T05:30:03.173Z,457.00
2023-05-01T05:31:03.205Z,455.00
2023-05-01T05:32:03.243Z,455.00
2023-05-01T05:33:03.335Z,457.00
2023-05-01T05:34:03.270Z,460.00
2023-05-01T05:35:03.341Z,461.00
2023-05-01T05:36:03.350Z,458.00
2023-05-01T05:37:03.417Z,458.00
2023-05-01T05:38:03.387Z,459.00
2023-05-01T05:39:03.429Z,460.00
2023-05-01T05:40:03.451Z,460.00
2023-05-01T05:41:03.516Z,460.00
2023-05-01T05:42:03.483Z,461.00
2023-05-01T05:43:03.537Z,459.00
2023-05-01T05:44:03.553Z,461.00
2023-05-01T05:45:03.612Z,461.00
2023-05-01T05:46:11.091Z,461.00
2023-05-01T05:47:03.593Z,463.00
2023-05-01T05:48:03.665Z,462.00
2023-05-01T05:49:03.589Z,462.00
2023-05-01T05:50:03.561Z,460.00
2023-05-01T05:51:03.555Z,459.00
2023-05-01T05:52:03.538Z,459.00
2023-05-01T05:53:03.550Z,458.00
2023-05-01T05:54:03.540Z,459.00
2023-05-01T05:55:03.557Z,460.00
2023-05-01T05:56:03.623Z,460.00
2023-05-01T05:57:03.549Z,460.00
2023-05-01T05:58:03.505Z,463.00
2023-05-01T05:59:03.520Z,464.00
2023-05-01T06:00:03.513Z,467.00
2023-05-01T06:01:03.503Z,468.00
2023-05-01T06:02:03.565Z,467.00
2023-05-01T06:03:03.566Z,469.00
2023-05-01T06:04:03.481Z,466.00
2023-05-01T06:05:03.497Z,468.00
2023-05-01T06:06:03.618Z,469.00
2023-05-01T06:07:03.552Z,468.00
2023-05-01T06:08:03.486Z,468.00
2023-05-01T06:09:03.465Z,467.00
2023-05-01T06:10:03.452Z,468.00
2023-05-01T06:11:03.486Z,466.00
2023-05-01T06:12:03.493Z,467.00
2023-05-01T06:13:13.943Z,467.00
2023-05-01T06:14:04.504Z,468.00
2023-05-01T06:15:03.508Z,469.00
2023-05-01T06:16:03.536Z,470.00
2023-05-01T06:17:03.477Z,466.00
2023-05-01T06:18:03.550Z,469.00
2023-05-01T06:19:03.490Z,471.00
2023-05-01T06:20:03.447Z,472.00
2023-05-01T06:21:03.443Z,470.00
2023-05-01T06:22:03.427Z,469.00
2023-05-01T06:23:03.521Z,470.00
2023-05-01T06:24:03.433Z,468.00
2023-05-01T06:25:03.394Z,467.00
2023-05-01T06:26:03.429Z,467.00
2023-05-01T06:27:03.425Z,468.00
2023-05-01T06:28:03.372Z,471.00
2023-05-01T06:29:03.380Z,472.00
2023-05-01T06:30:03.396Z,470.00
2023-05-01T06:31:03.492Z,469.00
2023-05-01T06:32:03.434Z,470.00
2023-05-01T06:33:03.464Z,470.00
2023-05-01T06:34:03.455Z,469.00
2023-05-01T06:35:03.461Z,469.00
2023-05-01T06:36:03.487Z,468.00
2023-05-01T06:37:03.609Z,466.00
2023-05-01T06:38:03.548Z,463.00
2023-05-01T06:39:03.550Z,462.00
2023-05-01T06:40:03.557Z,462.00
2023-05-01T06:41:03.601Z,462.00
2023-05-01T06:42:03.601Z,465.00
2023-05-01T06:43:03.600Z,465.00
2023-05-01T06:44:03.644Z,466.00
2023-05-01T06:45:03.657Z,465.00
2023-05-01T06:46:03.702Z,463.00
2023-05-01T06:47:03.753Z,462.00
2023-05-01T06:48:03.750Z,465.00
2023-05-01T06:49:03.714Z,463.00
2023-05-01T06:50:05.519Z,463.00
2023-05-01T06:51:03.760Z,466.00
2023-05-01T06:52:03.786Z,466.00
2023-05-01T06:53:03.797Z,465.00
2023-05-01T06:54:03.813Z,464.00
2023-05-01T06:55:03.866Z,462.00
2023-05-01T06:56:03.872Z,462.00
2023-05-01T06:57:03.870Z,462.00
2023-05-01T06:58:12.432Z,461.00
2023-05-01T06:59:04.918Z,463.00
2023-05-01T07:00:03.888Z,466.00
2023-05-01T07:01:03.913Z,466.00
2023-05-01T07:02:03.885Z,465.00
2023-05-01T07:03:03.885Z,465.00
2023-05-01T07:04:03.836Z,464.00
2023-05-01T07:05:03.840Z,463.00
2023-05-01T07:06:03.874Z,462.00
2023-05-01T07:07:03.809Z,461.00
2023-05-01T07:08:03.855Z,463.00
2023-05-01T07:09:03.810Z,462.00
2023-05-01T07:10:03.807Z,463.00
2023-05-01T07:11:03.804Z,463.00
2023-05-01T07:12:03.815Z,462.00
2023-05-01T07:13:03.785Z,464.00
2023-05-01T07:14:04.538Z,467.00
2023-05-01T07:15:03.789Z,467.00
2023-05-01T07:16:03.751Z,470.00
2023-05-01T07:17:03.794Z,470.00
2023-05-01T07:18:03.783Z,472.00
2023-05-01T07:19:03.726Z,473.00
2023-05-01T07:20:03.741Z,472.00
2023-05-01T07:21:03.744Z,471.00
2023-05-01T07:22:03.752Z,470.00
2023-05-01T07:23:05.893Z,469.00
2023-05-01T07:24:03.735Z,467.00
2023-05-01T07:25:03.769Z,464.00
2023-05-01T07:26:03.707Z,463.00
2023-05-01T07:27:03.714Z,463.00
2023-05-01T07:28:03.736Z,463.00
2023-05-01T07:29:03.697Z,461.00
2023-05-01T07:30:03.697Z,461.00
2023-05-01T07:31:03.706Z,463.00
2023-05-01T07:32:03.698Z,465.00
2023-05-01T07:33:03.753Z,470.00
2023-05-01T07:34:03.657Z,474.00
2023-05-01T07:35:03.659Z,473.00
2023-05-01T07:36:03.679Z,475.00
2023-05-01T07:37:03.690Z,472.00
2023-05-01T07:38:03.680Z,473.00
2023-05-01T07:39:03.606Z,472.00
2023-05-01T07:40:03.659Z,473.00
2023-05-01T07:41:03.615Z,473.00
2023-05-01T07:42:03.634Z,471.00
2023-05-01T07:43:03.610Z,468.00
2023-05-01T07:44:03.593Z,469.00
2023-05-01T07:45:03.607Z,470.00
2023-05-01T07:46:03.666Z,469.00
2023-05-01T07:47:03.593Z,471.00
2023-05-01T07:48:03.619Z,473.00
2023-05-01T07:49:03.576Z,470.00
2023-05-01T07:50:03.567Z,473.00
2023-05-01T07:51:03.569Z,475.00
2023-05-01T07:52:03.541Z,474.00
2023-05-01T07:53:03.528Z,472.00
2023-05-01T07:54:03.564Z,470.00
2023-05-01T07:55:03.529Z,470.00
2023-05-01T07:56:03.526Z,472.00
2023-05-01T07:57:03.525Z,470.00
2023-05-01T07:58:03.547Z,472.00
2023-05-01T07:59:03.503Z,471.00
2023-05-01T08:00:03.491Z,474.00
2023-05-01T08:01:03.500Z,472.00
2023-05-01T08:02:03.569Z,471.00
2023-05-01T08:03:03.559Z,470.00
2023-05-01T08:04:03.689Z,472.00
2023-05-01T08:05:03.464Z,471.00
2023-05-01T08:06:03.495Z,469.00
2023-05-01T08:07:03.436Z,468.00
2023-05-01T08:08:03.437Z,466.00
2023-05-01T08:09:03.458Z,468.00
2023-05-01T08:10:03.637Z,466.00
2023-05-01T08:11:03.411Z,466.00
2023-05-01T08:12:03.393Z,465.00
2023-05-01T08:13:03.426Z,466.00
2023-05-01T08:14:03.389Z,468.00
2023-05-01T08:15:03.441Z,466.00
2023-05-01T08:16:03.426Z,467.00
2023-05-01T08:17:03.359Z,464.00
2023-05-01T08:18:03.431Z,465.00
2023-05-01T08:19:03.389Z,466.00
2023-05-01T08:20:03.392Z,466.00
2023-05-01T08:21:03.401Z,468.00
2023-05-01T08:22:03.361Z,470.00
2023-05-01T08:23:03.337Z,470.00
2023-05-01T08:24:03.318Z,470.00
2023-05-01T08:25:03.328Z,469.00
2023-05-01T08:26:03.343Z,468.00
2023-05-01T08:27:03.317Z,468.00
2023-05-01T08:28:03.325Z,465.00
2023-05-01T08:29:03.291Z,465.00
2023-05-01T08:30:03.307Z,465.00
2023-05-01T08:31:03.314Z,467.00
2023-05-01T08:32:03.285Z,465.00
2023-05-01T08:33:03.404Z,466.00
2023-05-01T08:34:03.269Z,465.00
2023-05-01T08:35:03.273Z,465.00
2023-05-01T08:36:03.269Z,464.00
2023-05-01T08:37:03.252Z,466.00
2023-05-01T08:38:03.260Z,465.00
2023-05-01T08:39:03.253Z,464.00
2023-05-01T08:40:03.278Z,463.00
2023-05-01T08:41:03.191Z,463.00
2023-05-01T08:42:03.198Z,464.00
2023-05-01T08:43:03.223Z,463.00
2023-05-01T08:44:03.211Z,464.00
2023-05-01T08:45:03.162Z,462.00
2023-05-01T08:46:03.165Z,461.00
2023-05-01T08:47:03.286Z,462.00
2023-05-01T08:48:03.220Z,462.00
2023-05-01T08:49:03.148Z,464.00
2023-05-01T08:50:03.172Z,464.00
2023-05-01T08:51:03.136Z,462.00
2023-05-01T08:52:03.167Z,461.00
2023-05-01T08:53:03.138Z,461.00
2023-05-01T08:54:03.127Z,459.00
2023-05-01T08:55:03.108Z,459.00
2023-05-01T08:56:03.096Z,461.00
2023-05-01T08:57:03.116Z,462.00
2023-05-01T08:58:03.134Z,462.00
2023-05-01T08:59:03.078Z,463.00
2023-05-01T09:00:03.084Z,464.00
2023-05-01T09:01:03.077Z,464.00
2023-05-01T09:02:03.079Z,463.00
2023-05-01T09:03:03.154Z,464.00
2023-05-01T09:04:04.156Z,464.00
2023-05-01T09:05:03.060Z,462.00
2023-05-01T09:06:03.085Z,462.00
2023-05-01T09:07:03.036Z,462.00
2023-05-01T09:08:03.031Z,461.00
2023-05-01T09:09:03.018Z,462.00
2023-05-01T09:10:03.025Z,459.00
2023-05-01T09:11:03.092Z,457.00
2023-05-01T09:12:03.006Z,457.00
2023-05-01T09:13:03.020Z,458.00
2023-05-01T09:14:03.033Z,456.00
2023-05-01T09:15:02.998Z,456.00
2023-05-01T09:16:03.072Z,458.00
2023-05-01T09:17:03.100Z,460.00
2023-05-01T09:18:03.868Z,458.00
2023-05-01T09:19:03.222Z,458.00
2023-05-01T09:20:03.223Z,459.00
2023-05-01T09:21:03.314Z,462.00
2023-05-01T09:22:03.310Z,462.00
2023-05-01T09:23:03.385Z,462.00
2023-05-01T09:24:03.401Z,460.00
2023-05-01T09:25:03.474Z,461.00
2023-05-01T09:26:03.519Z,462.00
2023-05-01T09:27:03.595Z,461.00
2023-05-01T09:28:03.597Z,461.00
2023-05-01T09:29:03.662Z,462.00
2023-05-01T09:30:03.700Z,462.00
2023-05-01T09:31:03.761Z,464.00
2023-05-01T09:32:03.897Z,464.00
2023-05-01T09:33:03.916Z,463.00
2023-05-01T09:34:03.956Z,464.00
2023-05-01T09:35:04.022Z,463.00
2023-05-01T09:36:04.060Z,461.00
2023-05-01T09:37:04.137Z,461.00
2023-05-01T09:38:04.224Z,461.00
2023-05-01T09:39:04.243Z,460.00
2023-05-01T09:40:04.317Z,460.00
2023-05-01T09:41:04.417Z,460.00
2023-05-01T09:42:04.433Z,460.00
2023-05-01T09:43:04.458Z,459.00
2023-05-01T09:44:04.572Z,461.00
2023-05-01T09:45:04.605Z,460.00
2023-05-01T09:46:04.702Z,460.00
2023-05-01T09:47:04.752Z,461.00
2023-05-01T09:48:04.787Z,461.00
2023-05-01T09:49:04.799Z,459.00
2023-05-01T09:50:04.839Z,461.00
2023-05-01T09:51:04.902Z,459.00
2023-05-01T09:52:04.987Z,460.00
2023-05-01T09:53:05.072Z,460.00
2023-05-01T09:54:05.087Z,458.00
2023-05-01T09:55:05.111Z,457.00
2023-05-01T09:56:05.173Z,456.00
2023-05-01T09:57:05.219Z,453.00
2023-05-01T09:58:05.283Z,454.00
2023-05-01T09:59:05.343Z,455.00
2023-05-01T10:00:05.402Z,454.00
2023-05-01T10:01:05.494Z,454.00
2023-05-01T10:02:05.580Z,455.00
2023-05-01T10:03:06.612Z,454.00
2023-05-01T10:04:05.753Z,456.00
2023-05-01T10:05:05.632Z,456.00
2023-05-01T10:06:05.742Z,457.00
2023-05-01T10:07:05.748Z,456.00
2023-05-01T10:08:05.818Z,457.00
2023-05-01T10:09:05.862Z,459.00
2023-05-01T10:10:05.912Z,459.00
2023-05-01T10:11:05.982Z,460.00
2023-05-01T10:12:06.036Z,460.00
2023-05-01T10:13:06.066Z,461.00
2023-05-01T10:14:06.090Z,462.00
2023-05-01T10:15:21.114Z,464.00
2023-05-01T10:16:07.149Z,462.00
2023-05-01T10:17:06.209Z,462.00
2023-05-01T10:18:06.154Z,461.00
2023-05-01T10:19:06.161Z,460.00
2023-05-01T10:20:06.119Z,459.00
2023-05-01T10:21:06.123Z,461.00
2023-05-01T10:22:06.095Z,460.00
2023-05-01T10:23:06.132Z,459.00
2023-05-01T10:24:06.133Z,459.00
2023-05-01T10:25:06.100Z,460.00
2023-05-01T10:26:07.108Z,459.00
2023-05-01T10:27:06.237Z,458.00
2023-05-01T10:28:06.264Z,458.00
2023-05-01T10:29:06.321Z,458.00
2023-05-01T10:30:06.349Z,458.00
2023-05-01T10:31:06.482Z,460.00
2023-05-01T10:32:06.440Z,461.00
2023-05-01T10:33:06.547Z,462.00
2023-05-01T10:34:06.540Z,461.00
2023-05-01T10:35:06.619Z,458.00
2023-05-01T10:36:06.639Z,458.00
2023-05-01T10:37:06.741Z,460.00
2023-05-01T10:38:06.763Z,460.00
2023-05-01T10:39:06.767Z,459.00
2023-05-01T10:40:06.851Z,455.00
2023-05-01T10:41:06.911Z,456.00
2023-05-01T10:42:06.944Z,454.00
2023-05-01T10:43:07.021Z,457.00
2023-05-01T10:44:07.046Z,460.00
2023-05-01T10:45:07.164Z,461.00
2023-05-01T10:46:07.149Z,459.00
2023-05-01T10:47:07.171Z,460.00
2023-05-01T10:48:07.328Z,461.00
2023-05-01T10:49:07.302Z,461.00
2023-05-01T10:50:07.420Z,460.00
2023-05-01T10:51:07.387Z,460.00
2023-05-01T10:52:07.484Z,461.00
2023-05-01T10:53:07.524Z,460.00
2023-05-01T10:54:07.520Z,458.00
2023-05-01T10:55:07.596Z,457.00
2023-05-01T10:56:07.626Z,457.00
2023-05-01T10:57:07.698Z,454.00
2023-05-01T10:58:07.763Z,451.00
2023-05-01T10:59:07.828Z,450.00
2023-05-01T11:00:07.867Z,446.00
2023-05-01T11:01:07.930Z,445.00
2023-05-01T11:02:07.986Z,446.00
2023-05-01T11:03:08.101Z,449.00
2023-05-01T11:04:08.118Z,451.00
2023-05-01T11:05:08.126Z,453.00
2023-05-01T11:06:08.241Z,456.00
2023-05-01T11:07:08.530Z,457.00
2023-05-01T11:08:08.306Z,458.00
2023-05-01T11:09:08.343Z,458.00
2023-05-01T11:10:08.391Z,460.00
2023-05-01T11:11:08.493Z,460.00
2023-05-01T11:12:08.505Z,460.00
2023-05-01T11:13:08.575Z,460.00
2023-05-01T11:14:08.649Z,462.00
2023-05-01T11:15:08.772Z,460.00
2023-05-01T11:16:08.846Z,459.00
2023-05-01T11:17:08.792Z,460.00
2023-05-01T11:18:08.873Z,459.00
2023-05-01T11:19:08.917Z,458.00
2023-05-01T11:20:08.957Z,456.00
2023-05-01T11:21:09.022Z,455.00
2023-05-01T11:22:09.062Z,457.00
2023-05-01T11:23:09.136Z,455.00
2023-05-01T11:24:09.178Z,457.00
2023-05-01T11:25:09.216Z,457.00
2023-05-01T11:26:09.290Z,457.00
2023-05-01T11:27:09.346Z,457.00
2023-05-01T11:28:09.405Z,458.00
2023-05-01T11:29:09.464Z,457.00
2023-05-01T11:30:09.518Z,457.00
2023-05-01T11:31:09.567Z,457.00
2023-05-01T11:32:09.761Z,457.00
2023-05-01T11:33:10.931Z,458.00
2023-05-01T11:34:09.734Z,458.00
2023-05-01T11:35:09.793Z,460.00
2023-05-01T11:36:09.844Z,460.00
2023-05-01T11:37:09.876Z,461.00
2023-05-01T11:38:09.963Z,462.00
2023-05-01T11:39:10.010Z,462.00
2023-05-01T11:40:10.030Z,462.00
2023-05-01T11:41:10.095Z,460.00
2023-05-01T11:42:10.339Z,458.00
2023-05-01T11:43:10.205Z,459.00
2023-05-01T11:44:10.271Z,459.00
2023-05-01T11:45:10.314Z,461.00
2023-05-01T11:46:10.385Z,461.00
2023-05-01T11:47:10.383Z,460.00
2023-05-01T11:48:10.448Z,457.00
2023-05-01T11:49:10.513Z,456.00
2023-05-01T11:50:10.644Z,455.00
2023-05-01T11:51:10.631Z,456.00
2023-05-01T11:52:10.664Z,457.00
2023-05-01T11:53:10.728Z,460.00
2023-05-01T11:54:11.005Z,460.00
2023-05-01T11:55:10.830Z,461.00
2023-05-01T11:56:23.095Z,459.00
2023-05-01T11:57:11.892Z,457.00
2023-05-01T11:58:10.885Z,457.00
2023-05-01T11:59:10.910Z,457.00
2023-05-01T12:00:10.832Z,455.00
2023-05-01T12:01:10.862Z,454.00
2023-05-01T12:02:10.875Z,456.00
2023-05-01T12:03:10.967Z,456.00
2023-05-01T12:04:10.918Z,459.00
2023-05-01T12:05:10.840Z,460.00
2023-05-01T12:06:10.861Z,459.00
2023-05-01T12:07:10.840Z,458.00
2023-05-01T12:08:10.883Z,459.00
2023-05-01T12:09:10.950Z,458.00
2023-05-01T12:10:11.008Z,456.00
2023-05-01T12:11:11.030Z,456.00
2023-05-01T12:12:11.119Z,458.00
2023-05-01T12:13:11.188Z,454.00
2023-05-01T12:14:11.233Z,455.00
2023-05-01T12:15:11.245Z,455.00
2023-05-01T12:16:11.318Z,458.00
2023-05-01T12:17:11.433Z,460.00
2023-05-01T12:18:11.493Z,460.00
2023-05-01T12:19:11.485Z,460.00
2023-05-01T12:20:11.514Z,459.00
2023-05-01T12:21:11.591Z,458.00
2023-05-01T12:22:11.622Z,458.00
2023-05-01T12:23:11.749Z,457.00
2023-05-01T12:24:11.794Z,457.00
2023-05-01T12:25:11.779Z,457.00
2023-05-01T12:26:11.872Z,455.00
2023-05-01T12:27:11.913Z,455.00
2023-05-01T12:28:11.946Z,456.00
2023-05-01T12:29:12.020Z,455.00